Time;durP1;ratioP1;P1;durP2;ratioP2;P2;SDS_P1;SDS_P2;PMS_P1;PMS_P2;Temp;Humidity;BMP_temperature;BMP_pressure;BME280_temperature;BME280_humidity;BME280_pressure;Samples;Min_cycle;Max_cycle;Signal;HPM_P1;HPM_P2
2021/04/18 00:01:36;;;;;;;11.15;5.20;;;5.50;92.70;;;;;;4996793;28;20552;-37
2021/04/18 00:04:04;;;;;;;12.40;4.55;;;5.40;92.90;;;;;;5005164;28;20032;-38
2021/04/18 00:06:30;;;;;;;12.55;4.88;;;5.40;93.00;;;;;;4995599;28;20018;-37
2021/04/18 00:08:55;;;;;;;12.25;4.97;;;5.40;93.20;;;;;;5005209;28;20025;-38
2021/04/18 00:11:21;;;;;;;10.32;4.90;;;5.40;93.40;;;;;;4998289;28;20026;-38
2021/04/18 00:13:46;;;;;;;11.38;4.57;;;5.40;93.60;;;;;;4986955;28;20033;-36
2021/04/18 00:16:14;;;;;;;8.68;4.45;;;5.40;93.70;;;;;;4999220;28;20061;-38
2021/04/18 00:18:39;;;;;;;10.65;4.93;;;5.40;93.80;;;;;;4987444;28;20102;-37
2021/04/18 00:21:05;;;;;;;11.48;4.88;;;5.40;93.90;;;;;;4999022;28;20124;-37
2021/04/18 00:23:31;;;;;;;9.70;4.80;;;5.40;93.90;;;;;;4987043;28;20196;-34
2021/04/18 00:25:57;;;;;;;12.18;5.38;;;5.30;94.20;;;;;;4995933;28;20041;-38
2021/04/18 00:28:23;;;;;;;11.43;5.32;;;5.30;94.00;;;;;;4989436;28;20014;-38
2021/04/18 00:30:51;;;;;;;11.35;5.22;;;5.30;94.10;;;;;;4993909;28;20393;-36
2021/04/18 00:33:17;;;;;;;15.38;5.50;;;5.30;94.20;;;;;;4991696;28;20416;-37
2021/04/18 00:35:43;;;;;;;11.25;5.53;;;5.30;94.20;;;;;;4991440;28;20122;-35
2021/04/18 00:38:08;;;;;;;11.43;5.57;;;5.20;94.20;;;;;;4993663;28;20390;-41
2021/04/18 00:40:34;;;;;;;10.70;4.88;;;5.20;94.20;;;;;;4989408;28;20029;-38
2021/04/18 00:42:59;;;;;;;10.55;5.40;;;5.10;94.20;;;;;;4995738;28;20057;-39
2021/04/18 00:45:25;;;;;;;8.23;4.55;;;5.00;94.20;;;;;;4987558;28;20026;-34
2021/04/18 00:47:52;;;;;;;9.75;4.80;;;5.00;94.30;;;;;;4997619;28;20027;-38
2021/04/18 00:50:30;;;;;;;13.07;5.57;;;5.00;94.20;;;;;;4987339;28;20030;-38
2021/04/18 00:52:55;;;;;;;10.40;5.28;;;4.90;94.20;;;;;;4989424;28;20106;-36
2021/04/18 00:55:24;;;;;;;8.68;4.50;;;4.90;94.30;;;;;;4987508;28;20073;-39
2021/04/18 00:57:51;;;;;;;5.28;3.63;;;4.90;94.30;;;;;;4993594;28;20021;-38
2021/04/18 01:00:18;;;;;;;8.77;4.43;;;4.90;94.20;;;;;;5005695;28;20034;-37
2021/04/18 01:02:43;;;;;;;9.57;4.82;;;4.90;94.30;;;;;;4993097;28;20023;-39
2021/04/18 01:05:09;;;;;;;8.55;4.88;;;4.90;94.40;;;;;;5006102;28;20029;-39
2021/04/18 01:07:38;;;;;;;11.98;4.78;;;4.90;94.50;;;;;;4993651;28;20030;-36
2021/04/18 01:10:08;;;;;;;6.43;3.80;;;4.90;94.50;;;;;;4986010;28;20096;-38
2021/04/18 01:12:33;;;;;;;7.32;3.90;;;4.90;94.40;;;;;;4996004;28;20342;-37
2021/04/18 01:14:59;;;;;;;6.53;4.00;;;4.90;94.30;;;;;;4988436;28;20034;-39
2021/04/18 01:17:26;;;;;;;8.27;4.40;;;4.90;94.30;;;;;;4992977;28;20421;-38
2021/04/18 01:19:52;;;;;;;6.43;3.63;;;4.80;94.30;;;;;;4989801;28;20125;-33
2021/04/18 01:22:20;;;;;;;5.68;3.42;;;4.80;94.30;;;;;;4991508;28;20113;-38
2021/04/18 01:24:46;;;;;;;8.10;3.88;;;4.80;94.30;;;;;;4991779;28;20022;-39
2021/04/18 01:27:14;;;;;;;8.63;4.00;;;4.80;94.30;;;;;;4989159;28;20033;-36
2021/04/18 01:29:40;;;;;;;6.82;3.92;;;4.80;94.30;;;;;;4994404;28;20085;-36
2021/04/18 01:32:06;;;;;;;7.13;3.65;;;4.80;94.30;;;;;;4986734;28;20612;-41
2021/04/18 01:34:42;;;;;;;8.98;4.20;;;4.80;94.20;;;;;;4996587;28;20041;-35
2021/04/18 01:37:19;;;;;;;6.65;4.13;;;4.70;94.30;;;;;;4986585;28;20030;-38
2021/04/18 01:39:45;;;;;;;7.93;3.92;;;4.70;94.30;;;;;;4993984;28;20033;-39
2021/04/18 01:42:12;;;;;;;9.13;3.90;;;4.60;94.30;;;;;;5003913;28;20026;-39
2021/04/18 01:44:38;;;;;;;7.13;3.97;;;4.60;94.30;;;;;;4994522;28;20113;-38
2021/04/18 01:47:04;;;;;;;6.57;4.28;;;4.60;94.30;;;;;;5003998;28;20116;-35
2021/04/18 01:49:30;;;;;;;7.15;4.18;;;4.50;94.20;;;;;;4992670;28;20095;-39
2021/04/18 01:51:55;;;;;;;6.20;3.92;;;4.50;94.30;;;;;;4999284;28;20443;-35
2021/04/18 01:54:21;;;;;;;6.90;4.40;;;4.50;94.30;;;;;;4997032;28;20022;-36
2021/04/18 01:56:49;;;;;;;7.95;3.60;;;4.50;94.40;;;;;;4985235;28;20190;-38
2021/04/18 01:59:15;;;;;;;11.05;4.78;;;4.40;94.30;;;;;;4996191;28;20060;-36
2021/04/18 02:01:41;;;;;;;12.55;5.40;;;4.40;94.80;;;;;;4985747;28;20018;-36
2021/04/18 02:04:28;;;;;;;8.30;4.85;;;4.40;95.30;;;;;;4994017;28;20803;-39
2021/04/18 02:06:53;;;;;;;11.70;4.80;;;4.30;95.10;;;;;;4984815;28;20083;-39
2021/04/18 02:09:19;;;;;;;7.72;4.30;;;4.30;95.10;;;;;;4994546;28;20029;-36
2021/04/18 02:11:45;;;;;;;7.78;4.78;;;4.30;95.10;;;;;;4987993;28;20418;-38
2021/04/18 02:14:11;;;;;;;11.93;5.03;;;4.30;95.30;;;;;;4990837;28;20031;-35
2021/04/18 02:16:36;;;;;;;10.35;5.22;;;4.30;95.20;;;;;;4990406;28;20088;-38
2021/04/18 02:19:03;;;;;;;11.50;6.05;;;4.30;95.20;;;;;;4988811;28;20076;-36
2021/04/18 02:21:28;;;;;;;11.52;5.90;;;4.30;95.30;;;;;;4992157;28;20154;-37
2021/04/18 02:23:55;;;;;;;11.75;5.68;;;4.30;95.40;;;;;;4986531;28;20119;-38
2021/04/18 02:26:20;;;;;;;7.10;4.82;;;4.30;95.50;;;;;;4995494;28;20023;-38
2021/04/18 02:28:49;;;;;;;10.48;5.72;;;4.30;95.40;;;;;;4985621;28;20461;-37
2021/04/18 02:31:14;;;;;;;8.60;4.95;;;4.30;95.50;;;;;;4996020;28;20037;-38
2021/04/18 02:33:40;;;;;;;19.08;7.38;;;4.30;95.50;;;;;;4985505;28;20400;-39
2021/04/18 02:36:09;;;;;;;14.30;7.30;;;4.30;95.60;;;;;;4995623;28;20046;-38
2021/04/18 02:38:34;;;;;;;14.65;6.90;;;4.30;96.00;;;;;;4984939;28;20023;-38
2021/04/18 02:41:00;;;;;;;16.55;6.38;;;4.30;96.20;;;;;;4997012;28;20476;-38
2021/04/18 02:43:25;;;;;;;17.00;6.95;;;4.30;96.30;;;;;;4984409;28;20058;-38
2021/04/18 02:45:51;;;;;;;18.30;7.82;;;4.30;96.30;;;;;;4996734;28;20076;-39
2021/04/18 02:48:17;;;;;;;18.98;8.00;;;4.30;96.80;;;;;;4984342;28;20051;-36
2021/04/18 02:50:42;;;;;;;13.65;6.90;;;4.30;96.90;;;;;;4997479;28;20026;-38
2021/04/18 02:53:08;;;;;;;14.93;7.38;;;4.30;97.00;;;;;;5006438;28;20022;-39
2021/04/18 02:55:33;;;;;;;14.65;7.35;;;4.30;97.00;;;;;;5000904;28;20091;-39
2021/04/18 02:58:02;;;;;;;14.38;7.50;;;4.20;97.30;;;;;;5002889;28;20041;-38
2021/04/18 03:00:27;;;;;;;13.73;7.10;;;4.20;97.20;;;;;;5002661;28;20544;-38
2021/04/18 03:02:56;;;;;;;14.20;6.72;;;4.30;97.30;;;;;;4999728;28;20034;-37
2021/04/18 03:05:21;;;;;;;16.05;7.88;;;4.30;97.30;;;;;;5005939;28;20022;-36
2021/04/18 03:07:47;;;;;;;20.70;8.13;;;4.30;97.30;;;;;;4997604;28;20018;-38
2021/04/18 03:10:13;;;;;;;13.63;7.45;;;4.30;97.50;;;;;;5006325;28;20010;-38
2021/04/18 03:12:45;;;;;;;19.52;8.55;;;4.30;97.70;;;;;;4991171;28;20615;-38
2021/04/18 03:15:11;;;;;;;15.90;8.43;;;4.30;97.80;;;;;;4994114;28;20113;-37
2021/04/18 03:17:37;;;;;;;18.52;8.63;;;4.40;97.90;;;;;;4995833;28;20033;-37
2021/04/18 03:20:07;;;;;;;13.63;7.60;;;4.40;97.90;;;;;;5007564;28;20030;-36
2021/04/18 03:22:33;;;;;;;20.05;8.45;;;4.40;98.00;;;;;;4995519;28;20141;-39
2021/04/18 03:24:58;;;;;;;14.23;7.63;;;4.40;98.00;;;;;;5006709;28;20044;-37
2021/04/18 03:27:24;;;;;;;15.50;7.72;;;4.30;98.00;;;;;;4995012;28;20134;-37
2021/04/18 03:29:49;;;;;;;16.45;8.55;;;4.30;98.00;;;;;;5007620;28;20055;-37
2021/04/18 03:32:15;;;;;;;19.60;8.23;;;4.30;98.10;;;;;;4996717;28;20022;-36
2021/04/18 03:34:41;;;;;;;22.52;8.80;;;4.30;98.20;;;;;;5006274;28;20708;-38
2021/04/18 03:37:07;;;;;;;13.77;8.13;;;4.30;98.30;;;;;;4998715;28;20036;-40
2021/04/18 03:39:32;;;;;;;24.80;10.27;;;4.20;98.30;;;;;;5002707;28;20406;-38
2021/04/18 03:41:58;;;;;;;18.10;8.60;;;4.20;98.40;;;;;;5001860;28;20034;-38
2021/04/18 03:44:24;;;;;;;23.75;9.82;;;4.20;98.50;;;;;;5000661;28;20033;-38
2021/04/18 03:46:49;;;;;;;20.33;9.00;;;4.20;98.50;;;;;;5003370;28;20492;-38
2021/04/18 03:49:15;;;;;;;21.10;9.40;;;4.20;98.60;;;;;;4998486;28;20377;-38
2021/04/18 03:51:40;;;;;;;21.25;9.90;;;4.20;98.70;;;;;;5002959;28;20601;-36
2021/04/18 03:54:06;;;;;;;18.85;9.65;;;4.10;98.70;;;;;;4998570;28;20030;-38
2021/04/18 03:56:31;;;;;;;15.15;9.38;;;4.10;98.80;;;;;;5005906;28;20109;-39
2021/04/18 03:58:57;;;;;;;18.20;9.18;;;4.10;98.80;;;;;;4995291;28;20065;-39
2021/04/18 04:01:23;;;;;;;12.05;8.02;;;4.10;98.80;;;;;;5006033;28;20026;-38
2021/04/18 04:03:48;;;;;;;15.00;8.25;;;4.00;98.80;;;;;;4993981;28;20342;-36
2021/04/18 04:06:14;;;;;;;16.52;8.27;;;3.90;98.70;;;;;;5007035;28;20053;-38
2021/04/18 04:08:39;;;;;;;21.98;9.02;;;3.80;98.80;;;;;;4994226;28;20042;-37
2021/04/18 04:11:05;;;;;;;40.42;8.98;;;3.80;98.80;;;;;;5006774;28;20029;-36
2021/04/18 04:13:31;;;;;;;13.40;6.25;;;3.70;98.90;;;;;;4996428;28;20038;-35
2021/04/18 04:15:56;;;;;;;32.13;8.38;;;3.60;98.90;;;;;;5004042;28;20033;-39
2021/04/18 04:18:22;;;;;;;36.80;7.80;;;3.50;99.00;;;;;;4999475;28;20026;-37
2021/04/18 04:20:47;;;;;;;40.40;9.25;;;3.40;99.20;;;;;;5001004;28;20084;-35
2021/04/18 04:23:13;;;;;;;15.15;6.88;;;3.40;99.30;;;;;;5001991;28;20014;-34
2021/04/18 04:25:41;;;;;;;18.17;7.63;;;3.40;99.50;;;;;;4998926;28;20030;-38
2021/04/18 04:28:07;;;;;;;18.02;8.20;;;3.30;99.70;;;;;;5003344;28;20025;-38
2021/04/18 04:30:36;;;;;;;14.32;8.20;;;3.30;99.80;;;;;;4996669;28;20022;-39
2021/04/18 04:33:05;;;;;;;33.53;7.93;;;3.20;99.80;;;;;;5005042;28;20364;-38
2021/04/18 04:35:30;;;;;;;33.15;8.18;;;3.20;99.80;;;;;;4994835;28;20450;-37
2021/04/18 04:37:57;;;;;;;43.22;10.63;;;3.10;99.80;;;;;;5004627;28;20477;-36
2021/04/18 04:40:23;;;;;;;24.15;9.40;;;3.10;99.90;;;;;;4995355;28;20029;-38
2021/04/18 04:42:49;;;;;;;30.77;9.50;;;3.00;99.90;;;;;;5006154;28;20029;-38
2021/04/18 04:45:15;;;;;;;37.08;8.20;;;3.10;99.90;;;;;;4993679;28;20507;-37
2021/04/18 04:47:40;;;;;;;15.52;6.60;;;3.00;99.90;;;;;;5006178;28;20030;-38
2021/04/18 04:50:10;;;;;;;26.58;8.85;;;3.00;99.90;;;;;;4975752;28;20184;-38
2021/04/18 04:52:35;;;;;;;27.45;10.80;;;3.00;99.90;;;;;;4996969;28;20022;-36
2021/04/18 04:55:01;;;;;;;13.98;8.82;;;3.00;99.90;;;;;;4996741;28;20048;-39
2021/04/18 04:57:33;;;;;;;12.57;9.23;;;3.00;99.90;;;;;;4987595;28;20172;-34
2021/04/18 05:00:05;;;;;;;12.93;8.52;;;3.00;99.90;;;;;;4995272;28;20451;-39
2021/04/18 05:02:30;;;;;;;9.93;8.10;;;3.00;99.90;;;;;;4987885;28;20061;-40
2021/04/18 05:04:56;;;;;;;9.90;6.53;;;3.10;99.90;;;;;;4993216;28;20465;-40
2021/04/18 05:07:21;;;;;;;8.40;6.15;;;3.10;99.90;;;;;;4991152;28;20057;-39
2021/04/18 05:09:47;;;;;;;6.93;5.68;;;3.20;99.90;;;;;;4990038;28;20080;-37
2021/04/18 05:12:12;;;;;;;7.57;5.65;;;3.20;99.90;;;;;;4993573;28;20030;-40
2021/04/18 05:14:38;;;;;;;6.85;5.38;;;3.20;99.90;;;;;;4988109;28;20053;-38
2021/04/18 05:17:03;;;;;;;6.47;4.82;;;3.20;99.90;;;;;;4995624;28;20461;-40
2021/04/18 05:19:29;;;;;;;7.57;5.20;;;3.30;99.90;;;;;;4987225;28;20030;-40
2021/04/18 05:21:54;;;;;;;7.32;5.35;;;3.30;99.90;;;;;;4997192;28;20026;-38
2021/04/18 05:24:20;;;;;;;8.23;5.53;;;3.30;99.90;;;;;;4986534;28;20026;-36
2021/04/18 05:26:46;;;;;;;6.82;5.38;;;3.40;99.90;;;;;;4997281;28;20010;-38
2021/04/18 05:29:11;;;;;;;7.80;5.65;;;3.40;99.90;;;;;;4986004;28;20070;-38
2021/04/18 05:31:37;;;;;;;8.88;6.10;;;3.50;99.90;;;;;;4998471;28;20037;-38
2021/04/18 05:34:03;;;;;;;5.90;4.70;;;3.50;99.90;;;;;;4986163;28;20026;-40
2021/04/18 05:36:28;;;;;;;5.45;4.50;;;3.50;99.90;;;;;;4998118;28;20040;-39
2021/04/18 05:38:54;;;;;;;10.65;6.10;;;3.60;99.90;;;;;;4986735;28;20018;-36
2021/04/18 05:41:19;;;;;;;10.60;5.75;;;3.60;99.90;;;;;;4995342;28;20103;-38
2021/04/18 05:43:48;;;;;;;6.68;5.22;;;3.70;99.90;;;;;;4990046;28;20022;-38
2021/04/18 05:46:14;;;;;;;6.35;4.88;;;3.70;99.90;;;;;;4992747;28;20353;-37
2021/04/18 05:48:39;;;;;;;6.82;4.47;;;3.80;99.90;;;;;;4992460;28;20033;-36
2021/04/18 05:51:05;;;;;;;6.45;4.85;;;3.80;99.90;;;;;;4990060;28;20061;-36
2021/04/18 05:53:32;;;;;;;6.47;4.97;;;3.90;99.90;;;;;;4990448;28;20022;-36
2021/04/18 05:55:58;;;;;;;6.53;4.45;;;3.90;99.90;;;;;;4987986;28;20034;-38
2021/04/18 05:58:23;;;;;;;6.35;4.93;;;3.90;99.80;;;;;;4996736;28;20054;-40
2021/04/18 06:00:49;;;;;;;5.70;4.20;;;4.00;99.80;;;;;;4987462;28;20043;-36
2021/04/18 06:03:14;;;;;;;6.50;4.53;;;4.00;99.80;;;;;;4997047;28;20030;-39
2021/04/18 06:05:42;;;;;;;6.65;4.40;;;4.10;99.80;;;;;;4985944;28;20037;-38
2021/04/18 06:08:07;;;;;;;5.75;4.80;;;4.10;99.70;;;;;;4993510;28;20029;-40
2021/04/18 06:10:33;;;;;;;4.70;3.85;;;4.20;99.60;;;;;;5005747;28;20030;-36
2021/04/18 06:12:58;;;;;;;5.50;4.07;;;4.20;99.60;;;;;;4991991;28;20065;-39
2021/04/18 06:15:25;;;;;;;6.07;4.30;;;4.30;99.50;;;;;;5006077;28;20465;-39
2021/04/18 06:17:51;;;;;;;10.77;5.57;;;4.40;99.70;;;;;;4994074;28;20050;-36
2021/04/18 06:20:16;;;;;;;12.23;7.05;;;4.40;99.50;;;;;;5004069;28;20524;-38
2021/04/18 06:22:42;;;;;;;8.60;5.68;;;4.60;99.50;;;;;;4996899;28;20017;-35
2021/04/18 06:25:08;;;;;;;15.73;7.07;;;4.70;99.50;;;;;;5001329;28;20125;-37
2021/04/18 06:27:34;;;;;;;11.77;6.43;;;4.90;99.50;;;;;;4998683;28;20137;-37
2021/04/18 06:29:59;;;;;;;15.45;8.75;;;5.00;99.30;;;;;;4999042;28;20073;-39
2021/04/18 06:32:25;;;;;;;14.25;8.15;;;5.10;99.20;;;;;;5001722;28;20025;-38
2021/04/18 06:34:51;;;;;;;17.35;8.38;;;5.20;99.10;;;;;;4996420;28;20479;-34
2021/04/18 06:37:16;;;;;;;17.23;8.20;;;5.30;99.20;;;;;;5004327;28;20030;-38
2021/04/18 06:39:42;;;;;;;14.48;7.30;;;5.40;99.20;;;;;;4994156;28;20030;-40
2021/04/18 06:42:14;;;;;;;9.55;6.40;;;5.50;99.20;;;;;;5002293;28;20030;-39
2021/04/18 06:44:39;;;;;;;12.02;6.82;;;5.60;99.00;;;;;;4994597;28;20018;-39
2021/04/18 06:47:05;;;;;;;12.57;7.05;;;5.70;98.90;;;;;;5004823;28;20037;-36
2021/04/18 06:49:31;;;;;;;14.50;8.00;;;5.80;98.90;;;;;;4992902;28;20444;-32
2021/04/18 06:51:57;;;;;;;17.48;8.15;;;5.90;98.90;;;;;;5002759;28;20567;-38
2021/04/18 06:54:23;;;;;;;12.10;7.50;;;5.90;98.90;;;;;;4997273;28;20064;-37
2021/04/18 06:56:48;;;;;;;14.88;6.72;;;6.00;98.80;;;;;;4986077;28;20046;-37
2021/04/18 06:59:14;;;;;;;12.57;6.20;;;6.20;98.80;;;;;;4993577;28;20324;-39
2021/04/18 07:01:40;;;;;;;12.13;5.70;;;6.30;98.70;;;;;;4985269;28;20042;-38
2021/04/18 07:04:16;;;;;;;9.70;5.78;;;6.50;98.50;;;;;;4993700;28;20460;-38
2021/04/18 07:06:49;;;;;;;10.38;5.68;;;6.70;98.30;;;;;;4986996;28;20446;-38
2021/04/18 07:09:15;;;;;;;;;;;6.80;98.10;;;;;;4993693;28;20034;-38
2021/04/18 07:11:54;;;;;;;10.20;5.90;;;6.90;98.00;;;;;;4988730;28;20013;-39
2021/04/18 07:14:35;;;;;;;7.22;4.75;;;6.90;97.70;;;;;;4992628;28;20037;-39
2021/04/18 07:17:10;;;;;;;9.50;5.03;;;7.00;97.60;;;;;;4968685;28;20375;-35
2021/04/18 07:19:37;;;;;;;10.65;5.68;;;7.10;97.50;;;;;;4993153;28;20120;-36
2021/04/18 07:22:04;;;;;;;9.55;5.05;;;7.20;97.20;;;;;;4988553;28;20164;-37
2021/04/18 07:24:30;;;;;;;7.80;4.88;;;7.30;97.20;;;;;;4988373;28;20077;-39
2021/04/18 07:27:01;;;;;;;10.23;5.20;;;7.40;97.10;;;;;;4999219;28;20104;-38
2021/04/18 07:29:28;;;;;;;10.25;5.53;;;7.40;97.00;;;;;;4998912;28;20859;-35
2021/04/18 07:31:54;;;;;;;8.88;5.43;;;7.40;96.10;;;;;;4996914;28;20022;-37
2021/04/18 07:34:23;;;;;;;11.32;5.50;;;7.40;96.40;;;;;;5002433;28;20108;-37
2021/04/18 07:37:05;;;;;;;9.70;5.82;;;7.40;96.40;;;;;;4997878;28;20104;-35
2021/04/18 07:40:04;;;;;;;10.68;6.10;;;7.40;96.40;;;;;;5004709;28;20038;-38
2021/04/18 07:42:38;;;;;;;12.13;5.50;;;7.40;96.20;;;;;;4989105;28;20460;-38
2021/04/18 07:45:11;;;;;;;8.43;5.57;;;7.40;96.20;;;;;;5001584;28;20026;-37
2021/04/18 07:47:48;;;;;;;7.70;5.15;;;7.50;96.00;;;;;;5001770;28;20021;-39
2021/04/18 07:50:19;;;;;;;8.45;5.32;;;7.50;95.80;;;;;;5002084;28;20450;-36
2021/04/18 07:52:48;;;;;;;8.57;5.07;;;7.60;95.60;;;;;;4992642;28;20278;-34
2021/04/18 07:55:15;;;;;;;7.50;4.97;;;7.70;95.70;;;;;;4991419;28;20342;-37
2021/04/18 07:57:41;;;;;;;8.70;5.32;;;7.80;95.70;;;;;;4999160;28;20033;-35
2021/04/18 08:00:09;;;;;;;10.73;6.22;;;7.90;95.50;;;;;;5005098;28;20050;-37
2021/04/18 08:02:35;;;;;;;10.75;6.35;;;8.00;94.90;;;;;;4996884;28;20117;-37
2021/04/18 08:05:01;;;;;;;9.55;5.82;;;8.20;94.90;;;;;;5004397;28;20022;-38
2021/04/18 08:07:27;;;;;;;10.07;5.18;;;8.40;93.90;;;;;;4996176;28;20088;-37
2021/04/18 08:10:21;;;;;;;8.40;5.65;;;8.50;94.20;;;;;;5006163;28;20054;-36
2021/04/18 08:12:59;;;;;;;11.88;5.18;;;8.80;93.80;;;;;;4997901;28;20532;-36
2021/04/18 08:15:25;;;;;;;9.27;5.07;;;9.10;93.60;;;;;;4989428;28;20014;-37
2021/04/18 08:18:14;;;;;;;8.80;5.03;;;9.30;93.50;;;;;;4998405;28;20495;-38
2021/04/18 08:20:45;;;;;;;8.95;4.90;;;9.50;91.50;;;;;;4988672;28;20049;-39
2021/04/18 08:23:18;;;;;;;8.98;5.20;;;9.60;90.40;;;;;;4998430;28;20030;-38
2021/04/18 08:26:08;;;;;;;7.78;4.35;;;9.70;89.40;;;;;;5002940;28;20061;-39
2021/04/18 08:28:55;;;;;;;7.25;4.30;;;9.80;88.90;;;;;;5002474;28;20033;-37
2021/04/18 08:31:28;;;;;;;8.88;4.00;;;9.80;90.00;;;;;;5002893;28;20027;-39
2021/04/18 08:34:00;;;;;;;6.63;4.57;;;9.90;90.30;;;;;;5003293;28;20466;-40
2021/04/18 08:36:34;;;;;;;7.15;4.38;;;10.00;90.30;;;;;;5002639;28;20324;-35
2021/04/18 08:39:00;;;;;;;8.35;4.63;;;10.00;90.40;;;;;;4997148;28;20117;-37
2021/04/18 08:41:40;;;;;;;8.63;4.60;;;10.00;90.50;;;;;;5002041;28;20157;-38
2021/04/18 08:44:45;;;;;;;10.18;4.50;;;9.90;90.20;;;;;;5002960;28;20366;-36
2021/04/18 08:47:13;;;;;;;6.50;4.10;;;10.00;90.20;;;;;;4894142;29;20434;-39
2021/04/18 08:49:40;;;;;;;6.47;3.78;;;10.00;90.40;;;;;;4905149;29;20036;-37
2021/04/18 08:52:12;;;;;;;6.75;3.80;;;10.00;90.50;;;;;;4948130;28;20042;-36
2021/04/18 08:54:41;;;;;;;5.93;4.00;;;10.00;90.50;;;;;;4992365;28;20022;-37
2021/04/18 08:57:12;;;;;;;6.57;3.40;;;9.90;90.00;;;;;;4991717;28;20026;-38
2021/04/18 08:59:39;;;;;;;6.75;4.10;;;10.00;90.00;;;;;;4995281;28;20164;-36
2021/04/18 09:02:07;;;;;;;9.15;4.43;;;10.00;87.60;;;;;;4987541;28;20023;-38
2021/04/18 09:04:35;;;;;;;9.10;3.85;;;10.00;85.10;;;;;;4999255;28;20030;-39
2021/04/18 09:07:03;;;;;;;9.70;4.03;;;10.10;85.30;;;;;;5004146;28;20106;-37
2021/04/18 09:09:30;;;;;;;5.97;3.90;;;10.10;84.40;;;;;;4996791;28;20018;-37
2021/04/18 09:11:57;;;;;;;6.35;3.10;;;10.20;84.60;;;;;;4987053;28;20379;-40
2021/04/18 09:14:26;;;;;;;6.82;3.95;;;10.30;84.70;;;;;;4998380;28;20021;-35
2021/04/18 09:16:52;;;;;;;7.75;3.40;;;10.30;84.40;;;;;;4985856;28;20740;-39
2021/04/18 09:19:17;;;;;;;6.30;3.72;;;10.30;83.10;;;;;;4998364;28;20065;-38
2021/04/18 09:21:55;;;;;;;6.07;3.20;;;10.40;81.00;;;;;;4987359;28;20113;-37
2021/04/18 09:24:21;;;;;;;8.68;3.90;;;10.50;81.20;;;;;;4997978;28;20036;-37
2021/04/18 09:27:01;;;;;;;8.35;3.97;;;10.50;78.10;;;;;;4985998;28;20585;-37
2021/04/18 09:29:29;;;;;;;5.38;2.90;;;10.60;79.30;;;;;;4997909;28;20034;-39
2021/04/18 09:32:21;;;;;;;3.53;2.55;;;10.70;79.30;;;;;;4985927;28;20089;-38
2021/04/18 09:34:47;;;;;;;4.10;2.83;;;10.80;79.50;;;;;;4997723;28;20505;-37
2021/04/18 09:37:35;;;;;;;5.00;3.25;;;10.90;78.80;;;;;;4986539;28;20041;-38
2021/04/18 09:40:05;;;;;;;5.30;3.38;;;10.90;77.90;;;;;;4997554;28;20149;-37
2021/04/18 09:42:34;;;;;;;4.95;3.33;;;11.00;78.00;;;;;;4985685;28;20455;-39
2021/04/18 09:45:17;;;;;;;6.20;3.53;;;11.10;78.50;;;;;;4997156;28;20079;-38
2021/04/18 09:47:48;;;;;;;5.07;3.30;;;11.20;77.40;;;;;;4985983;28;20486;-36
2021/04/18 09:50:19;;;;;;;8.27;3.40;;;11.30;76.60;;;;;;4997860;28;20465;-37
2021/04/18 09:52:46;;;;;;;5.88;3.80;;;11.40;75.90;;;;;;4992669;28;20025;-37
2021/04/18 09:55:19;;;;;;;5.88;3.15;;;11.50;74.10;;;;;;4993239;28;20022;-38
2021/04/18 09:57:52;;;;;;;5.78;3.08;;;11.60;73.70;;;;;;4999921;28;20044;-37
2021/04/18 10:00:32;;;;;;;3.55;2.60;;;11.80;74.70;;;;;;5000110;28;20169;-37
2021/04/18 10:03:05;;;;;;;6.63;3.40;;;12.00;75.40;;;;;;4985893;28;20407;-38
2021/04/18 10:05:37;;;;;;;6.15;3.50;;;12.10;74.30;;;;;;4996131;28;20385;-39
2021/04/18 10:08:23;;;;;;;6.45;3.38;;;12.30;74.50;;;;;;4985217;28;20022;-38
2021/04/18 10:10:52;;;;;;;6.90;3.45;;;12.40;73.70;;;;;;4997821;28;20112;-37
2021/04/18 10:13:55;;;;;;;6.22;3.65;;;12.60;72.80;;;;;;4997776;28;20164;-37
2021/04/18 10:16:24;;;;;;;7.22;4.60;;;12.60;70.50;;;;;;4992752;28;20022;-38
2021/04/18 10:19:16;;;;;;;6.57;4.15;;;12.70;68.70;;;;;;5004926;28;20497;-38
2021/04/18 10:22:08;;;;;;;7.30;4.82;;;12.70;69.30;;;;;;4993723;28;20052;-38
2021/04/18 10:24:44;;;;;;;7.78;4.30;;;12.90;68.20;;;;;;5003300;28;20045;-38
2021/04/18 10:27:13;;;;;;;9.05;5.35;;;12.90;68.90;;;;;;4993080;28;20030;-36
2021/04/18 10:29:40;;;;;;;10.45;5.50;;;12.90;68.20;;;;;;4986554;28;20038;-39
2021/04/18 10:32:07;;;;;;;5.80;3.95;;;12.90;68.50;;;;;;4996110;28;20077;-39
2021/04/18 10:34:33;;;;;;;7.00;3.58;;;13.00;69.20;;;;;;4984812;28;20026;-38
2021/04/18 10:36:58;;;;;;;7.10;4.80;;;13.00;69.20;;;;;;4998676;28;20109;-37
2021/04/18 10:39:24;;;;;;;8.63;5.32;;;13.10;68.20;;;;;;5004564;28;20034;-39
2021/04/18 10:41:53;;;;;;;9.02;5.53;;;13.10;68.70;;;;;;4991337;28;20044;-37
2021/04/18 10:44:20;;;;;;;10.52;5.43;;;13.20;68.10;;;;;;4994954;28;20032;-35
2021/04/18 10:46:51;;;;;;;9.00;5.43;;;13.40;68.70;;;;;;4994530;28;20491;-37
2021/04/18 10:49:17;;;;;;;10.40;6.03;;;13.50;69.00;;;;;;4985963;28;20035;-38
2021/04/18 10:51:42;;;;;;;8.93;5.63;;;13.60;68.80;;;;;;4993384;28;20104;-38
2021/04/18 10:54:09;;;;;;;7.40;4.45;;;13.60;69.00;;;;;;4987063;28;20027;-39
2021/04/18 10:56:35;;;;;;;6.43;4.15;;;13.70;69.50;;;;;;4990494;28;20491;-38
2021/04/18 10:59:01;;;;;;;10.43;5.07;;;13.80;70.00;;;;;;5003180;28;20042;-39
2021/04/18 11:01:27;;;;;;;8.00;5.20;;;13.80;70.00;;;;;;4999709;28;20034;-39
2021/04/18 11:03:53;;;;;;;8.00;4.68;;;13.80;70.00;;;;;;5002085;28;20026;-38
2021/04/18 11:06:19;;;;;;;5.20;3.97;;;13.90;70.80;;;;;;5003183;28;20048;-38
2021/04/18 11:08:44;;;;;;;12.80;5.30;;;14.00;70.80;;;;;;4993221;28;20545;-39
2021/04/18 11:11:11;;;;;;;7.55;5.00;;;14.10;69.20;;;;;;5005708;28;20096;-38
2021/04/18 11:13:38;;;;;;;8.48;4.90;;;14.20;69.90;;;;;;4997560;28;20045;-39
2021/04/18 11:16:05;;;;;;;9.05;5.20;;;14.30;69.60;;;;;;5007545;28;20453;-39
2021/04/18 11:18:30;;;;;;;8.20;5.05;;;14.30;69.50;;;;;;4995748;28;20030;-38
2021/04/18 11:20:56;;;;;;;7.38;5.45;;;14.40;68.90;;;;;;5008212;28;20037;-38
2021/04/18 11:23:21;;;;;;;9.23;5.28;;;14.50;69.00;;;;;;4995241;28;20123;-39
2021/04/18 11:25:47;;;;;;;8.02;5.00;;;14.60;69.40;;;;;;5008094;28;20116;-36
2021/04/18 11:28:12;;;;;;;8.80;5.22;;;14.70;69.60;;;;;;4996935;28;20023;-39
2021/04/18 11:30:38;;;;;;;6.20;4.65;;;14.80;68.90;;;;;;5006333;28;20513;-40
2021/04/18 11:33:06;;;;;;;11.63;5.63;;;14.80;69.00;;;;;;4999197;28;20093;-38
2021/04/18 11:35:32;;;;;;;11.10;6.07;;;14.90;69.30;;;;;;5004319;28;20026;-39
2021/04/18 11:38:00;;;;;;;8.32;5.20;;;14.90;69.60;;;;;;5001128;28;20029;-39
2021/04/18 11:40:26;;;;;;;10.05;5.60;;;14.80;69.30;;;;;;5002342;28;20492;-35
2021/04/18 11:42:52;;;;;;;6.90;4.93;;;14.80;67.80;;;;;;5001125;28;20118;-37
2021/04/18 11:45:19;;;;;;;7.75;5.07;;;14.70;68.50;;;;;;4996445;28;20105;-38
2021/04/18 11:47:45;;;;;;;9.82;5.53;;;14.80;68.40;;;;;;4990059;28;20081;-39
2021/04/18 11:50:11;;;;;;;6.90;5.03;;;14.80;67.80;;;;;;4997285;28;20081;-38
2021/04/18 11:52:37;;;;;;;7.32;4.85;;;14.80;68.30;;;;;;4991017;28;20105;-38
2021/04/18 11:55:08;;;;;;;8.43;5.10;;;14.80;68.20;;;;;;4996399;28;20041;-39
2021/04/18 11:57:34;;;;;;;8.73;5.30;;;14.70;68.40;;;;;;5005867;28;20038;-40
2021/04/18 12:00:00;;;;;;;9.65;6.18;;;14.60;68.60;;;;;;4996156;28;20056;-37
2021/04/18 12:02:26;;;;;;;10.82;5.80;;;14.60;68.10;;;;;;5007498;28;20042;-38
2021/04/18 12:04:51;;;;;;;8.25;5.10;;;14.50;68.50;;;;;;4993991;28;20034;-37
2021/04/18 12:07:17;;;;;;;8.70;5.05;;;14.50;68.80;;;;;;5002576;28;20022;-37
2021/04/18 12:09:42;;;;;;;11.93;6.05;;;14.50;68.90;;;;;;4999633;28;20056;-38
2021/04/18 12:12:08;;;;;;;9.85;5.60;;;14.50;68.70;;;;;;4987351;28;20037;-38
2021/04/18 12:14:34;;;;;;;6.15;4.95;;;14.60;68.60;;;;;;4997244;28;20438;-39
2021/04/18 12:16:59;;;;;;;8.18;5.57;;;14.70;68.90;;;;;;4990011;28;20030;-36
2021/04/18 12:19:25;;;;;;;11.65;5.97;;;14.70;67.80;;;;;;4993556;28;20025;-38
2021/04/18 12:21:50;;;;;;;9.43;5.13;;;14.70;67.50;;;;;;4991528;28;20054;-38
2021/04/18 12:24:16;;;;;;;8.18;5.40;;;14.80;67.90;;;;;;4991971;28;20544;-37
2021/04/18 12:26:41;;;;;;;9.40;5.55;;;14.80;66.90;;;;;;4995006;28;20026;-37
2021/04/18 12:29:07;;;;;;;8.73;5.25;;;14.90;67.30;;;;;;4988802;28;20431;-34
2021/04/18 12:31:36;;;;;;;7.68;5.00;;;15.00;67.90;;;;;;4995428;28;20113;-37
2021/04/18 12:34:11;;;;;;;7.97;5.40;;;15.10;68.00;;;;;;4999269;28;20029;-36
2021/04/18 12:36:37;;;;;;;6.28;5.15;;;15.20;66.50;;;;;;4998180;28;20061;-39
2021/04/18 12:39:07;;;;;;;8.10;5.35;;;15.30;66.30;;;;;;4988129;28;20066;-37
2021/04/18 12:41:33;;;;;;;8.50;5.90;;;15.40;67.30;;;;;;4998003;28;20080;-35
2021/04/18 12:43:58;;;;;;;7.22;4.75;;;15.40;65.40;;;;;;4987449;28;20042;-38
2021/04/18 12:46:24;;;;;;;10.13;5.72;;;15.50;65.50;;;;;;4998081;28;20061;-38
2021/04/18 12:48:50;;;;;;;7.13;4.90;;;15.60;64.00;;;;;;4986917;28;20041;-38
2021/04/18 12:51:15;;;;;;;7.68;5.13;;;15.60;64.60;;;;;;4999046;28;20026;-39
2021/04/18 12:53:41;;;;;;;9.73;5.30;;;15.80;63.90;;;;;;4998952;28;20026;-38
2021/04/18 12:56:08;;;;;;;6.90;4.97;;;15.80;63.20;;;;;;4995569;28;20034;-37